Time;durP1;ratioP1;P1;durP2;ratioP2;P2;SDS_P1;SDS_P2;PMS_P1;PMS_P2;Temp;Humidity;BMP_temperature;BMP_pressure;BME280_temperature;BME280_humidity;BME280_pressure;Samples;Min_cycle;Max_cycle;Signal;HPM_P1;HPM_P2
2023/02/22 00:00:28;;;;;;;9.90;8.20;;;;;;;8.05;89.47;153426.22;4885953;29;20653;-78
2023/02/22 00:02:58;;;;;;;10.80;7.40;;;;;;;8.06;89.50;153428.75;4887896;29;20454;-78
2023/02/22 00:05:26;;;;;;;16.67;8.07;;;;;;;8.02;89.58;153418.44;4908375;29;20481;-79
2023/02/22 00:07:55;;;;;;;9.30;7.50;;;;;;;7.98;89.71;153409.41;4892145;29;20461;-78
2023/02/22 00:10:24;;;;;;;10.40;8.87;;;;;;;7.98;89.53;153409.41;4896525;29;20457;-78
2023/02/22 00:12:52;;;;;;;9.20;7.13;;;;;;;7.95;89.88;153401.63;4914213;29;20445;-79
2023/02/22 00:15:21;;;;;;;8.10;7.27;;;;;;;7.95;89.44;153402.94;4896427;29;20463;-79
2023/02/22 00:17:48;;;;;;;9.10;8.17;;;;;;;7.93;90.21;153396.47;4897414;29;20536;-79
2023/02/22 00:20:17;;;;;;;14.80;8.77;;;;;;;7.90;89.44;153388.72;4897335;29;20457;-78
2023/02/22 00:22:46;;;;;;;9.67;7.70;;;;;;;7.87;89.48;153382.25;4895066;29;20465;-79
2023/02/22 00:25:13;;;;;;;9.90;7.20;;;;;;;7.86;89.59;153378.41;4908031;29;20880;-79
2023/02/22 00:27:41;;;;;;;8.93;7.40;;;;;;;7.83;90.41;153371.94;4910465;29;20458;-79
2023/02/22 00:30:10;;;;;;;7.50;6.53;;;;;;;7.80;89.57;153362.88;4894649;29;20494;-78
2023/02/22 00:32:36;;;;;;;8.30;6.83;;;;;;;7.75;90.35;153351.28;4897329;29;20506;-78
2023/02/22 00:35:07;;;;;;;7.37;6.50;;;;;;;7.70;90.21;153338.38;4891364;29;20450;-77
2023/02/22 00:37:34;;;;;;;10.40;7.20;;;;;;;7.69;89.90;153335.75;4896908;29;20449;-78
2023/02/22 00:40:01;;;;;;;9.93;6.80;;;;;;;7.68;90.57;153331.84;4899074;29;20556;-78
2023/02/22 00:42:27;;;;;;;10.40;7.60;;;;;;;7.63;92.13;153318.94;4920797;29;20457;-78
2023/02/22 00:44:55;;;;;;;8.63;6.80;;;;;;;7.64;92.21;153321.56;4894192;29;20553;-78
2023/02/22 00:47:22;;;;;;;9.53;7.33;;;;;;;7.63;91.90;153318.94;4896366;29;20464;-78
2023/02/22 00:49:49;;;;;;;10.03;6.97;;;;;;;7.60;92.56;153311.25;4897608;29;20474;-78
2023/02/22 00:52:16;;;;;;;9.50;7.13;;;;;;;7.55;92.43;153299.59;4877866;29;20564;-78
2023/02/22 00:54:42;;;;;;;12.90;7.93;;;;;;;7.51;92.31;153287.97;4894007;29;20469;-78
2023/02/22 00:57:09;;;;;;;7.70;6.87;;;;;;;7.49;91.93;153282.81;4910309;29;20437;-79
2023/02/22 00:59:36;;;;;;;9.87;7.10;;;;;;;7.46;92.51;153275.06;4881595;29;20545;-78
2023/02/22 01:02:04;;;;;;;10.83;7.73;;;;;;;7.44;92.18;153271.16;4910291;29;20469;-78
2023/02/22 01:04:31;;;;;;;10.43;7.37;;;;;;;7.41;92.10;153263.44;4914340;29;20517;-78
2023/02/22 01:06:59;;;;;;;9.27;8.00;;;;;;;7.41;92.41;153262.16;4900452;29;20549;-78
2023/02/22 01:09:27;;;;;;;10.10;7.50;;;;;;;7.41;92.42;153262.16;4895889;29;20453;-78
2023/02/22 01:11:55;;;;;;;10.90;7.97;;;;;;;7.42;93.24;153264.69;4899536;29;20549;-78
2023/02/22 01:14:25;;;;;;;9.73;7.60;;;;;;;7.41;92.38;153263.44;4895735;29;20453;-78
2023/02/22 01:16:53;;;;;;;9.70;7.33;;;;;;;7.41;92.46;153263.44;4881282;29;20477;-78
2023/02/22 01:19:21;;;;;;;10.27;7.23;;;;;;;7.42;92.77;153264.69;4908325;29;20492;-78
2023/02/22 01:21:49;;;;;;;10.20;7.63;;;;;;;7.42;92.02;153266.00;4897043;29;20824;-79
2023/02/22 01:24:16;;;;;;;10.97;8.10;;;;;;;7.41;92.21;153262.16;4884648;29;20463;-78
2023/02/22 01:26:44;;;;;;;8.47;7.37;;;;;;;7.36;93.01;153250.50;4908703;29;21012;-79
2023/02/22 01:29:14;;;;;;;9.43;8.43;;;;;;;7.34;93.01;153246.63;4893028;29;20457;-78
2023/02/22 01:31:42;;;;;;;7.93;7.13;;;;;;;7.33;94.12;153242.78;4897325;29;20533;-78
2023/02/22 01:34:09;;;;;;;10.23;7.60;;;;;;;7.30;93.55;153235.03;4913382;29;20461;-78
2023/02/22 01:36:38;;;;;;;7.73;6.67;;;;;;;7.24;93.18;153220.81;4874246;29;20898;-78
2023/02/22 01:39:06;;;;;;;11.33;7.40;;;;;;;7.17;92.98;153201.47;4910192;29;20969;-78
2023/02/22 01:41:32;;;;;;;11.13;7.50;;;;;;;7.15;94.45;153196.25;4894852;29;20552;-78
2023/02/22 01:44:21;;;;;;;8.27;7.47;;;;;;;7.10;93.92;153183.34;4894336;29;20459;-78
2023/02/22 01:46:48;;;;;;;9.67;7.23;;;;;;;7.04;95.05;153169.16;4911164;29;20471;-78
2023/02/22 01:49:15;;;;;;;8.70;7.30;;;;;;;7.03;94.49;153165.28;4897383;29;20521;-78
2023/02/22 01:51:45;;;;;;;10.27;7.43;;;;;;;6.99;93.62;153156.25;4896452;29;20457;-78
2023/02/22 01:54:14;;;;;;;9.40;6.90;;;;;;;6.95;94.44;153145.94;4893321;29;20461;-78
2023/02/22 01:56:46;;;;;;;9.93;7.80;;;;;;;6.96;94.63;153147.25;4907118;29;20544;-78
2023/02/22 01:59:13;;;;;;;11.30;7.53;;;;;;;6.93;94.96;153140.78;4878797;29;20525;-78
2023/02/22 02:01:41;;;;;;;8.70;7.50;;;;;;;6.90;95.52;153133.03;4888931;29;20494;-78
2023/02/22 02:04:14;;;;;;;7.93;6.83;;;;;;;6.87;94.63;153123.97;4912303;29;20457;-78
2023/02/22 02:06:42;;;;;;;11.67;8.20;;;;;;;6.86;95.02;153121.44;4912181;29;20473;-78
2023/02/22 02:09:13;;;;;;;11.10;7.50;;;;;;;6.83;95.41;153114.94;4883002;29;20472;-78
2023/02/22 02:11:41;;;;;;;10.07;8.00;;;;;;;6.80;95.45;153105.91;4915241;29;20964;-78
2023/02/22 02:14:09;;;;;;;12.10;8.60;;;;;;;6.77;95.79;153099.47;4897936;29;20461;-78
2023/02/22 02:16:38;;;;;;;8.87;7.23;;;;;;;6.73;95.85;153089.13;4893130;29;20522;-78
2023/02/22 02:19:09;;;;;;;9.97;7.97;;;;;;;6.73;97.01;153089.13;4915506;29;20959;-78
2023/02/22 02:21:48;;;;;;;16.50;7.63;;;;;;;6.74;97.24;153091.72;4913583;29;20552;-78
2023/02/22 02:24:39;;;;;;;9.93;7.80;;;;;;;6.71;97.26;153083.97;4888948;29;20457;-78
2023/02/22 02:27:11;;;;;;;9.87;8.37;;;;;;;6.68;96.99;153077.50;4896142;29;20553;-78
2023/02/22 02:30:06;;;;;;;7.77;7.03;;;;;;;6.62;97.15;153062.03;4904701;29;20857;-78
2023/02/22 02:32:44;;;;;;;8.20;7.40;;;;;;;6.62;96.95;153060.72;4888763;29;20466;-78
2023/02/22 02:35:15;;;;;;;10.00;8.20;;;;;;;6.56;97.23;153046.56;4910711;29;20458;-78
2023/02/22 02:37:47;;;;;;;9.60;8.43;;;;;;;6.53;95.98;153037.50;4917885;29;20438;-78
2023/02/22 02:40:20;;;;;;;9.30;8.40;;;;;;;6.51;97.41;153032.38;4915249;29;20465;-78
2023/02/22 02:42:55;;;;;;;12.30;8.60;;;;;;;6.49;98.05;153027.16;4899091;29;20948;-78
2023/02/22 02:45:28;;;;;;;9.80;7.70;;;;;;;6.46;96.72;153019.47;4902963;29;20886;-78
2023/02/22 02:47:57;;;;;;;9.30;8.30;;;;;;;6.40;97.15;153005.28;4894245;29;21004;-78
2023/02/22 02:50:27;;;;;;;9.70;8.27;;;;;;;6.38;96.89;152998.81;4900552;29;20484;-78
2023/02/22 02:52:55;;;;;;;9.77;7.30;;;;;;;6.31;97.41;152982.03;4899685;29;20429;-78
2023/02/22 02:55:22;;;;;;;11.17;8.00;;;;;;;6.30;96.88;152978.16;4896609;29;20450;-78
2023/02/22 02:57:49;;;;;;;8.63;7.73;;;;;;;6.20;97.08;152952.31;4893675;29;20516;-78
2023/02/22 03:00:21;;;;;;;10.53;8.60;;;;;;;6.16;97.33;152942.03;4897479;29;20462;-78
2023/02/22 03:03:00;;;;;;;9.13;7.90;;;;;;;6.14;98.50;152939.44;4899200;29;20441;-78
2023/02/22 03:05:43;;;;;;;9.07;7.87;;;;;;;6.12;98.11;152934.28;4902715;29;20955;-78
2023/02/22 03:08:14;;;;;;;10.13;7.73;;;;;;;6.09;98.29;152925.22;4916222;29;20474;-78
2023/02/22 03:10:50;;;;;;;9.97;8.97;;;;;;;6.05;98.66;152916.25;4912426;29;20485;-78
2023/02/22 03:13:25;;;;;;;9.93;8.93;;;;;;;6.04;98.40;152913.63;4899160;29;21002;-78
2023/02/22 03:16:01;;;;;;;11.70;8.23;;;;;;;5.97;98.59;152895.59;4899973;29;20816;-78
2023/02/22 03:18:33;;;;;;;11.07;9.07;;;;;;;5.92;98.33;152882.69;4893184;29;20453;-78
2023/02/22 03:21:07;;;;;;;12.30;9.00;;;;;;;5.90;98.65;152876.25;4898900;29;20960;-78
2023/02/22 03:23:39;;;;;;;9.63;8.03;;;;;;;5.85;98.49;152863.38;4905444;29;20516;-78
2023/02/22 03:26:08;;;;;;;11.90;8.10;;;;;;;5.83;99.90;152859.41;4884335;29;20569;-78
2023/02/22 03:28:39;;;;;;;10.53;8.43;;;;;;;5.81;98.38;152854.28;4876957;29;20457;-78
2023/02/22 03:31:10;;;;;;;10.10;7.67;;;;;;;5.78;98.75;152846.53;4898832;29;20821;-78
2023/02/22 03:33:41;;;;;;;9.30;7.70;;;;;;;5.76;99.22;152840.06;4906054;29;20477;-79
2023/02/22 03:36:13;;;;;;;13.27;8.63;;;;;;;5.73;99.40;152832.34;4877629;29;20458;-78
2023/02/22 03:38:41;;;;;;;11.57;7.80;;;;;;;5.71;100.00;152828.47;4897067;29;20489;-79
2023/02/22 03:41:13;;;;;;;9.03;7.80;;;;;;;5.71;100.00;152827.19;4886058;29;20847;-78
2023/02/22 03:43:43;;;;;;;10.03;8.53;;;;;;;5.69;100.00;152822.03;4880904;29;20462;-78
2023/02/22 03:46:14;;;;;;;13.67;7.73;;;;;;;5.68;99.71;152819.44;4897852;29;20451;-78
2023/02/22 03:48:48;;;;;;;9.57;7.87;;;;;;;5.64;99.86;152810.41;4897639;29;20448;-78
2023/02/22 03:51:16;;;;;;;8.50;7.70;;;;;;;5.61;99.72;152802.72;4896502;29;20837;-78
2023/02/22 03:53:45;;;;;;;10.07;7.60;;;;;;;5.58;99.81;152793.66;4893083;29;20457;-78
2023/02/22 03:56:18;;;;;;;8.90;7.53;;;;;;;5.53;99.41;152782.06;4902065;29;20549;-77
2023/02/22 03:58:47;;;;;;;8.30;7.47;;;;;;;5.50;99.37;152774.31;4899392;29;20459;-77
2023/02/22 04:01:14;;;;;;;9.20;7.77;;;;;;;5.49;100.00;152773.03;4880738;29;20573;-78
2023/02/22 04:03:41;;;;;;;8.97;8.07;;;;;;;5.47;99.05;152766.59;4882304;29;20549;-78
2023/02/22 04:06:09;;;;;;;11.10;8.67;;;;;;;5.48;99.24;152769.19;4891588;29;20449;-78
2023/02/22 04:08:36;;;;;;;10.40;8.10;;;;;;;5.45;99.16;152761.44;4903546;29;20576;-78
2023/02/22 04:11:03;;;;;;;9.30;7.80;;;;;;;5.40;99.53;152748.56;4894035;29;20876;-78
2023/02/22 04:13:30;;;;;;;10.10;8.37;;;;;;;5.37;99.70;152740.81;4894688;29;20460;-78
2023/02/22 04:15:58;;;;;;;9.37;7.67;;;;;;;5.35;99.90;152736.91;4880030;29;20517;-78
2023/02/22 04:18:26;;;;;;;9.07;8.10;;;;;;;5.34;100.00;152733.06;4897085;29;20805;-78
2023/02/22 04:20:52;;;;;;;11.53;8.67;;;;;;;5.30;99.95;152724.03;4881160;29;20805;-78
2023/02/22 04:23:32;;;;;;;8.63;7.60;;;;;;;5.27;100.00;152715.03;4906313;29;20495;-77
2023/02/22 04:25:59;;;;;;;12.00;8.27;;;;;;;5.24;100.00;152707.28;4912835;29;20492;-78
2023/02/22 04:28:26;;;;;;;11.33;7.97;;;;;;;5.25;100.00;152709.84;4897273;29;20473;-78
2023/02/22 04:31:01;;;;;;;13.30;8.60;;;;;;;5.19;100.00;152695.66;4911437;29;20563;-79
2023/02/22 04:33:28;;;;;;;12.30;8.50;;;;;;;5.17;100.00;152690.50;4879895;29;20465;-77
2023/02/22 04:35:56;;;;;;;8.83;7.30;;;;;;;5.18;100.00;152691.81;4889372;29;20447;-78
2023/02/22 04:38:24;;;;;;;12.53;9.20;;;;;;;5.12;100.00;152676.31;4896436;29;20506;-78
2023/02/22 04:40:53;;;;;;;9.73;7.60;;;;;;;5.13;100.00;152678.94;4881096;29;20451;-78
2023/02/22 04:43:21;;;;;;;11.40;8.00;;;;;;;5.12;100.00;152676.31;4892170;29;20481;-78
2023/02/22 04:45:51;;;;;;;10.97;7.73;;;;;;;5.16;100.00;152686.66;4905512;29;20460;-77
2023/02/22 04:48:18;;;;;;;13.63;9.27;;;;;;;5.13;100.00;152678.94;4894594;29;20478;-78
2023/02/22 04:50:46;;;;;;;11.53;9.13;;;;;;;5.07;100.00;152663.44;4895705;29;20478;-78
2023/02/22 04:53:13;;;;;;;9.30;7.37;;;;;;;5.05;100.00;152658.31;4910014;29;20452;-78
2023/02/22 04:55:40;;;;;;;10.27;9.00;;;;;;;5.02;100.00;152650.56;4879627;29;20523;-78
2023/02/22 04:58:09;;;;;;;11.23;8.43;;;;;;;4.97;100.00;152637.69;4893314;29;20449;-78
2023/02/22 05:00:36;;;;;;;9.47;7.90;;;;;;;4.93;100.00;152629.94;4907001;29;21158;-77
2023/02/22 05:03:03;;;;;;;9.40;8.23;;;;;;;4.90;100.00;152622.19;4896651;29;20488;-78
2023/02/22 05:05:30;;;;;;;10.47;8.47;;;;;;;4.93;100.00;152628.63;4896686;29;20444;-78
2023/02/22 05:07:56;;;;;;;9.87;8.80;;;;;;;4.89;100.00;152619.66;4910132;29;20834;-78
2023/02/22 05:10:24;;;;;;;9.27;8.30;;;;;;;4.85;100.00;152609.31;4909732;29;20462;-78
2023/02/22 05:12:51;;;;;;;10.57;8.53;;;;;;;4.79;100.00;152593.84;4913465;29;20448;-77
2023/02/22 05:15:21;;;;;;;9.80;8.30;;;;;;;4.78;100.00;152590.00;4909545;29;20468;-78
2023/02/22 05:17:48;;;;;;;11.37;8.30;;;;;;;4.76;100.00;152586.16;4912836;29;20861;-78
2023/02/22 05:20:21;;;;;;;8.97;8.07;;;;;;;4.83;100.00;152602.88;4906390;29;20503;-78
2023/02/22 05:22:48;;;;;;;10.40;8.57;;;;;;;4.80;100.00;152596.44;4909724;29;20470;-78
2023/02/22 05:25:15;;;;;;;8.57;7.67;;;;;;;4.77;100.00;152587.41;4901240;29;20994;-78
2023/02/22 05:27:42;;;;;;;8.93;7.27;;;;;;;4.76;100.00;152586.16;4932369;29;20804;-78
2023/02/22 05:30:11;;;;;;;10.27;7.90;;;;;;;4.73;100.00;152578.41;4901767;29;20901;-78
2023/02/22 05:32:39;;;;;;;14.30;8.83;;;;;;;4.73;100.00;152577.13;4913333;29;20859;-78
2023/02/22 05:35:07;;;;;;;10.27;7.63;;;;;;;4.72;100.00;152575.81;4913877;29;20452;-77
2023/02/22 05:37:34;;;;;;;10.67;8.70;;;;;;;4.68;100.00;152564.22;4894599;29;20452;-77
2023/02/22 05:40:01;;;;;;;10.03;8.03;;;;;;;4.69;100.00;152568.06;4917616;29;20971;-78
2023/02/22 05:42:27;;;;;;;11.47;8.80;;;;;;;4.65;100.00;152557.78;4911643;29;20826;-78
2023/02/22 05:44:54;;;;;;;10.40;8.43;;;;;;;4.63;100.00;152551.34;4916371;29;20455;-78
2023/02/22 05:47:21;;;;;;;10.50;8.43;;;;;;;4.62;100.00;152550.06;4915439;29;20511;-78
2023/02/22 05:49:49;;;;;;;9.30;8.33;;;;;;;4.62;100.00;152550.06;4896910;29;20511;-78
2023/02/22 05:52:16;;;;;;;9.53;8.30;;;;;;;4.59;100.00;152541.03;4933823;29;20513;-78
2023/02/22 05:54:43;;;;;;;15.13;10.00;;;;;;;4.57;100.00;152537.19;4928369;29;20661;-78
2023/02/22 05:57:09;;;;;;;12.83;9.00;;;;;;;4.62;100.00;152550.06;4912396;29;20455;-78
2023/02/22 05:59:36;;;;;;;11.00;8.97;;;;;;;4.66;100.00;152560.34;4911568;29;20472;-78
2023/02/22 06:02:03;;;;;;;10.70;9.33;;;;;;;4.68;100.00;152564.22;4924263;29;20468;-78
2023/02/22 06:04:29;;;;;;;10.00;9.00;;;;;;;4.70;100.00;152570.66;4918618;29;20459;-78
2023/02/22 06:06:57;;;;;;;19.03;9.07;;;;;;;4.72;100.00;152574.50;4919591;29;20516;-78
2023/02/22 06:09:24;;;;;;;10.70;8.30;;;;;;;4.74;100.00;152580.97;4918484;29;22136;-78
2023/02/22 06:11:51;;;;;;;12.80;7.57;;;;;;;4.78;100.00;152591.28;4910822;29;20514;-78
2023/02/22 06:14:17;;;;;;;10.20;9.03;;;;;;;4.78;100.00;152590.00;4902966;29;20561;-78
2023/02/22 06:16:44;;;;;;;11.17;8.70;;;;;;;4.78;100.00;152591.28;4921931;29;20470;-78
2023/02/22 06:19:11;;;;;;;17.00;8.93;;;;;;;4.83;100.00;152604.16;4903992;29;20472;-78
2023/02/22 06:21:37;;;;;;;12.17;8.93;;;;;;;4.81;100.00;152599.03;4920774;29;20521;-77
2023/02/22 06:24:08;;;;;;;10.80;8.40;;;;;;;4.83;100.00;152604.16;4916801;29;20839;-77
2023/02/22 06:26:35;;;;;;;13.03;9.90;;;;;;;4.83;100.00;152604.16;4886995;29;20492;-77
2023/02/22 06:29:04;;;;;;;10.03;8.80;;;;;;;4.84;100.00;152606.72;4900944;29;20863;-77
2023/02/22 06:31:31;;;;;;;10.50;8.50;;;;;;;4.82;100.00;152601.56;4884179;29;20967;-77
2023/02/22 06:33:58;;;;;;;9.83;8.83;;;;;;;4.82;100.00;152601.56;4895736;29;20512;-78
2023/02/22 06:36:24;;;;;;;14.17;9.97;;;;;;;4.83;100.00;152602.88;4884986;29;20475;-78
2023/02/22 06:38:51;;;;;;;11.43;8.93;;;;;;;4.84;100.00;152606.72;4902016;29;20546;-77
2023/02/22 06:41:19;;;;;;;10.50;8.60;;;;;;;4.87;100.00;152613.22;4900217;29;20475;-78
2023/02/22 06:43:47;;;;;;;11.53;8.63;;;;;;;4.96;100.00;152635.06;4902024;29;20460;-78
2023/02/22 06:46:14;;;;;;;11.03;9.60;;;;;;;5.04;100.00;152655.69;4907147;29;20510;-77
2023/02/22 06:48:41;;;;;;;9.07;7.43;;;;;;;5.14;100.00;152682.78;4888589;29;20499;-77
2023/02/22 06:51:09;;;;;;;10.77;8.73;;;;;;;5.22;100.00;152702.09;4892583;29;20482;-78
2023/02/22 06:53:35;;;;;;;10.03;7.57;;;;;;;5.28;100.00;152717.59;4891041;29;20496;-77
2023/02/22 06:56:02;;;;;;;10.47;8.83;;;;;;;5.38;100.00;152743.34;4904238;29;20450;-78
2023/02/22 06:58:30;;;;;;;10.17;9.07;;;;;;;5.46;100.00;152764.00;4888713;29;20954;-78
2023/02/22 07:00:57;;;;;;;10.93;9.40;;;;;;;5.60;100.00;152800.09;4904884;29;20570;-78
2023/02/22 07:03:23;;;;;;;9.80;8.03;;;;;;;5.78;100.00;152846.53;4902530;29;20455;-78
2023/02/22 07:05:50;;;;;;;13.73;8.50;;;;;;;6.00;100.00;152903.34;4905269;29;20456;-77
2023/02/22 07:08:17;;;;;;;11.40;8.67;;;;;;;6.20;99.64;152953.63;4893121;29;20476;-78
2023/02/22 07:10:43;;;;;;;10.20;8.77;;;;;;;6.32;98.56;152984.63;4904017;29;20564;-78
2023/02/22 07:13:10;;;;;;;10.87;8.70;;;;;;;6.47;97.92;153023.31;4900467;29;20461;-78
2023/02/22 07:15:38;;;;;;;11.27;8.60;;;;;;;6.69;98.14;153078.81;4905044;29;20560;-78
2023/02/22 07:18:12;;;;;;;11.63;9.50;;;;;;;6.89;97.80;153130.44;4906168;29;20456;-78
2023/02/22 07:20:39;;;;;;;9.60;8.60;;;;;;;7.25;95.79;153222.13;4902992;29;22017;-79
2023/02/22 07:23:06;;;;;;;9.97;8.87;;;;;;;7.56;95.57;153300.88;4904419;29;20550;-78
2023/02/22 07:25:33;;;;;;;11.23;8.77;;;;;;;7.79;94.45;153360.28;4903031;29;20565;-78
2023/02/22 07:27:59;;;;;;;11.80;7.77;;;;;;;8.00;93.28;153414.53;4907052;29;21262;-78
2023/02/22 07:30:29;;;;;;;12.70;9.07;;;;;;;8.23;93.04;153474.03;4904816;29;20552;-78
2023/02/22 07:32:59;;;;;;;10.40;8.53;;;;;;;8.42;91.02;153523.16;4902911;29;20446;-78
2023/02/22 07:35:29;;;;;;;9.97;8.20;;;;;;;8.66;89.92;153583.91;4904121;29;20465;-78
2023/02/22 07:37:56;;;;;;;9.93;7.93;;;;;;;8.73;89.01;153600.72;4903932;29;20568;-78
2023/02/22 07:40:24;;;;;;;10.60;7.97;;;;;;;8.72;88.64;153598.13;4902447;29;20462;-78
2023/02/22 07:42:55;;;;;;;10.10;8.43;;;;;;;8.73;88.08;153600.72;4892796;29;20888;-78
2023/02/22 07:45:25;;;;;;;11.53;8.27;;;;;;;8.69;87.47;153590.38;4906142;29;20465;-77
2023/02/22 07:47:52;;;;;;;10.23;8.13;;;;;;;8.61;87.68;153570.97;4905028;29;20497;-78
2023/02/22 07:50:21;;;;;;;11.67;8.50;;;;;;;8.64;87.88;153577.44;4888369;29;20549;-77
2023/02/22 07:52:49;;;;;;;14.50;8.10;;;;;;;8.61;87.49;153569.69;4903527;29;20446;-78
2023/02/22 07:55:18;;;;;;;10.20;8.03;;;;;;;8.67;87.68;153585.22;4887469;29;20486;-79
2023/02/22 07:57:46;;;;;;;8.73;7.20;;;;;;;8.69;87.91;153591.66;4903364;29;20466;-79
2023/02/22 08:00:14;;;;;;;9.53;7.70;;;;;;;8.81;86.95;153621.41;4904241;29;20457;-78
2023/02/22 08:02:41;;;;;;;9.07;7.30;;;;;;;8.91;86.53;153647.28;4885682;29;20446;-78
2023/02/22 08:05:09;;;;;;;13.67;7.73;;;;;;;9.00;85.60;153671.81;4904435;29;20887;-78
2023/02/22 08:07:38;;;;;;;11.43;8.40;;;;;;;9.05;83.53;153683.50;4901932;29;20472;-79
2023/02/22 08:10:06;;;;;;;13.80;9.87;;;;;;;8.91;82.12;153648.56;4902808;29;20468;-79
2023/02/22 08:12:33;;;;;;;10.43;9.30;;;;;;;8.92;81.77;153649.88;4889898;29;21007;-79
2023/02/22 08:15:00;;;;;;;11.03;9.50;;;;;;;9.01;82.16;153673.13;4902383;29;20545;-80
2023/02/22 08:17:26;;;;;;;13.00;11.20;;;;;;;9.08;80.46;153691.25;4905932;29;20537;-79
2023/02/22 08:19:53;;;;;;;15.43;11.93;;;;;;;9.14;80.32;153708.03;4903101;29;20600;-79
2023/02/22 08:22:20;;;;;;;11.57;10.00;;;;;;;9.21;81.70;153723.59;4892330;29;20549;-79
2023/02/22 08:24:48;;;;;;;9.70;8.17;;;;;;;9.25;80.94;153735.22;4888435;29;20488;-79
2023/02/22 08:27:14;;;;;;;10.97;9.67;;;;;;;9.50;80.96;153799.91;4904362;29;20486;-80
2023/02/22 08:29:41;;;;;;;10.50;9.27;;;;;;;9.60;79.46;153825.78;4900225;29;20577;-79
2023/02/22 08:32:08;;;;;;;10.53;9.43;;;;;;;9.65;79.97;153837.41;4905500;29;20453;-79
2023/02/22 08:34:35;;;;;;;11.73;9.10;;;;;;;9.59;79.24;153823.16;4902172;29;20467;-79
2023/02/22 08:37:01;;;;;;;12.13;10.23;;;;;;;9.79;78.71;153874.91;4901202;29;21008;-79
2023/02/22 08:39:28;;;;;;;10.20;8.97;;;;;;;9.84;78.11;153885.28;4903493;29;20558;-78
2023/02/22 08:41:56;;;;;;;8.93;8.03;;;;;;;9.81;77.67;153878.81;4902461;29;20455;-78
2023/02/22 08:44:23;;;;;;;12.20;9.10;;;;;;;9.77;78.10;153868.44;4904956;29;20469;-78
2023/02/22 08:46:50;;;;;;;10.93;9.80;;;;;;;9.75;77.82;153864.56;4907415;29;20457;-79
2023/02/22 08:49:17;;;;;;;10.93;9.13;;;;;;;9.80;77.57;153877.50;4900534;29;20513;-78
2023/02/22 08:51:43;;;;;;;12.47;10.40;;;;;;;9.74;78.27;153860.72;4904471;29;20457;-78
2023/02/22 08:54:10;;;;;;;13.40;9.10;;;;;;;9.88;78.39;153895.59;4902709;29;20455;-78
2023/02/22 08:56:37;;;;;;;10.30;8.60;;;;;;;10.12;77.25;153959.09;4888081;29;20469;-79
2023/02/22 08:59:05;;;;;;;9.57;8.20;;;;;;;10.18;77.22;153974.63;4902164;29;20552;-79
2023/02/22 09:01:33;;;;;;;10.30;8.90;;;;;;;10.17;75.96;153972.03;4905753;29;20560;-78
2023/02/22 09:04:01;;;;;;;10.50;8.50;;;;;;;10.16;76.77;153968.16;4901305;29;20462;-79
2023/02/22 09:06:28;;;;;;;10.13;9.03;;;;;;;10.15;76.98;153965.56;4908010;29;20454;-79
2023/02/22 09:08:55;;;;;;;10.43;9.43;;;;;;;10.11;76.82;153955.19;4910333;29;20516;-79
2023/02/22 09:11:21;;;;;;;11.43;8.60;;;;;;;10.19;77.40;153975.94;4904054;29;20472;-79
2023/02/22 09:13:48;;;;;;;8.93;8.03;;;;;;;10.13;76.88;153960.41;4905122;29;20458;-79
2023/02/22 09:16:16;;;;;;;12.10;8.90;;;;;;;10.28;76.78;154000.50;4904980;29;20447;-78
2023/02/22 09:18:43;;;;;;;14.20;8.80;;;;;;;10.36;77.00;154019.94;4891286;29;20462;-79
2023/02/22 09:21:11;;;;;;;12.20;9.80;;;;;;;10.27;76.45;153997.91;4902076;29;20453;-78
2023/02/22 09:23:38;;;;;;;11.70;8.70;;;;;;;10.26;76.88;153994.03;4889557;29;20462;-78
2023/02/22 09:26:07;;;;;;;10.17;9.10;;;;;;;10.29;76.77;154001.81;4888336;29;20485;-78
2023/02/22 09:28:34;;;;;;;10.63;8.90;;;;;;;10.08;77.31;153947.41;4897803;29;20486;-78
2023/02/22 09:31:01;;;;;;;13.20;10.27;;;;;;;10.11;77.62;153955.19;4871519;29;20961;-78
2023/02/22 09:33:29;;;;;;;13.47;9.53;;;;;;;10.09;78.24;153949.97;4901117;29;20449;-78
2023/02/22 09:35:59;;;;;;;12.77;9.27;;;;;;;10.15;78.48;153965.56;4900867;29;20457;-78
2023/02/22 09:38:28;;;;;;;13.23;10.77;;;;;;;10.07;78.50;153946.09;4888699;29;20445;-78
2023/02/22 09:40:59;;;;;;;11.47;9.00;;;;;;;10.10;77.83;153952.56;4902759;29;20450;-79
2023/02/22 09:43:35;;;;;;;13.20;10.00;;;;;;;10.07;78.70;153946.09;4901505;29;20577;-78
2023/02/22 09:46:17;;;;;;;15.27;10.27;;;;;;;10.13;78.50;153960.41;4886990;29;20506;-78
2023/02/22 09:49:00;;;;;;;11.07;9.50;;;;;;;10.19;77.62;153975.94;4872898;29;20517;-78
2023/02/22 09:51:30;;;;;;;11.77;9.93;;;;;;;10.27;77.85;153996.66;4901732;29;20460;-78
2023/02/22 09:54:00;;;;;;;10.97;9.20;;;;;;;10.07;77.64;153944.81;4898731;29;20485;-78
2023/02/22 09:56:27;;;;;;;12.70;11.17;;;;;;;9.99;78.28;153924.09;4905167;29;20528;-78
2023/02/22 09:58:56;;;;;;;12.47;9.33;;;;;;;10.13;78.19;153960.41;4901307;29;20479;-78
2023/02/22 10:01:26;;;;;;;11.37;8.67;;;;;;;10.22;78.07;153983.66;4902053;29;20868;-78
2023/02/22 10:03:59;;;;;;;11.40;9.23;;;;;;;10.30;77.64;154005.69;4900187;29;20469;-78
2023/02/22 10:06:25;;;;;;;11.10;8.10;;;;;;;10.36;76.74;154019.94;4905596;29;20469;-78
2023/02/22 10:08:55;;;;;;;11.40;8.17;;;;;;;10.53;75.56;154063.97;4908237;29;20576;-78
2023/02/22 10:11:32;;;;;;;11.43;9.50;;;;;;;10.47;76.78;154048.41;4887703;29;20550;-78
2023/02/22 10:14:09;;;;;;;9.77;7.83;;;;;;;10.51;76.35;154058.75;4898957;29;20457;-78
2023/02/22 10:16:40;;;;;;;17.57;7.43;;;;;;;10.59;74.38;154078.22;4901466;29;20597;-78
2023/02/22 10:19:17;;;;;;;7.27;6.47;;;;;;;10.76;73.71;154123.53;4881325;29;20461;-78
2023/02/22 10:21:57;;;;;;;11.17;6.10;;;;;;;10.77;74.01;154126.13;4903444;29;20448;-78
2023/02/22 10:24:37;;;;;;;7.40;6.03;;;;;;;10.90;71.27;154159.78;4902865;29;20454;-78
2023/02/22 10:27:04;;;;;;;9.37;6.80;;;;;;;10.94;71.61;154168.81;4921677;29;20524;-78
2023/02/22 10:29:36;;;;;;;7.30;6.07;;;;;;;11.08;71.22;154203.81;4924645;29;20489;-78
2023/02/22 10:32:04;;;;;;;6.97;6.27;;;;;;;11.26;70.39;154250.44;4921433;29;20967;-78
2023/02/22 10:34:36;;;;;;;9.20;7.33;;;;;;;11.26;70.93;154250.44;4925135;29;20460;-78
2023/02/22 10:37:13;;;;;;;8.73;6.50;;;;;;;11.35;71.18;154273.78;4922005;29;20453;-78
2023/02/22 10:39:39;;;;;;;7.80;6.97;;;;;;;11.49;69.71;154310.06;4924425;29;20466;-78
2023/02/22 10:42:08;;;;;;;8.80;6.80;;;;;;;11.58;68.61;154333.38;4921906;29;20820;-79
2023/02/22 10:44:35;;;;;;;13.47;6.90;;;;;;;11.59;69.08;154337.28;4926457;29;20453;-78
2023/02/22 10:47:05;;;;;;;8.60;7.63;;;;;;;11.68;70.02;154357.97;4913725;29;20447;-78
2023/02/22 10:49:37;;;;;;;8.77;7.20;;;;;;;11.79;68.09;154387.84;4916638;29;20476;-78
2023/02/22 10:52:13;;;;;;;7.90;6.40;;;;;;;11.68;67.71;154359.28;4912778;29;20456;-78
2023/02/22 10:54:42;;;;;;;9.87;7.30;;;;;;;11.76;68.18;154380.06;4908257;29;20499;-78
2023/02/22 10:57:10;;;;;;;10.77;8.47;;;;;;;11.74;68.29;154374.88;4928075;29;20964;-78
2023/02/22 10:59:39;;;;;;;8.70;7.80;;;;;;;11.76;68.24;154378.75;4923843;29;20468;-78
2023/02/22 11:02:13;;;;;;;9.70;7.03;;;;;;;11.71;68.18;154365.81;4908640;29;20997;-78
2023/02/22 11:04:49;;;;;;;7.87;6.60;;;;;;;11.73;68.16;154372.28;4923001;29;20475;-79
2023/02/22 11:07:23;;;;;;;7.90;7.00;;;;;;;11.74;70.48;154374.88;4913718;29;20444;-79
2023/02/22 11:09:53;;;;;;;8.43;6.63;;;;;;;11.75;68.40;154377.50;4927678;29;20940;-78
2023/02/22 11:12:22;;;;;;;8.43;7.40;;;;;;;11.82;68.38;154395.63;4923120;29;20456;-78
2023/02/22 11:14:48;;;;;;;9.27;8.03;;;;;;;11.86;67.77;154405.97;4909008;29;20492;-79
2023/02/22 11:17:25;;;;;;;12.00;7.77;;;;;;;11.76;68.32;154378.75;4919901;29;20446;-78
2023/02/22 11:19:53;;;;;;;9.07;8.17;;;;;;;11.78;71.41;154385.22;4909021;29;20456;-79
2023/02/22 11:22:22;;;;;;;9.77;7.13;;;;;;;11.76;70.33;154380.06;4920945;29;20492;-79
2023/02/22 11:24:52;;;;;;;11.87;7.80;;;;;;;11.86;69.80;154405.97;4915816;29;20485;-79
2023/02/22 11:27:27;;;;;;;9.40;8.17;;;;;;;11.98;69.66;154437.09;4903269;29;20552;-78
2023/02/22 11:29:55;;;;;;;9.93;8.97;;;;;;;12.12;69.15;154473.41;4909147;29;20488;-79
2023/02/22 11:32:23;;;;;;;11.47;8.90;;;;;;;12.13;68.52;154475.97;4901653;29;20836;-79